Time;durP1;ratioP1;P1;durP2;ratioP2;P2;SDS_P1;SDS_P2;PMS_P1;PMS_P2;Temp;Humidity;BMP_temperature;BMP_pressure;BME280_temperature;BME280_humidity;BME280_pressure;Samples;Min_cycle;Max_cycle;Signal;HPM_P1;HPM_P2
2022/11/01 00:01:36;;;;;;;0.10;0.10;;;22.60;63.30;;;;;;4951876;29;20291;-78
2022/11/01 00:04:07;;;;;;;0.55;0.20;;;22.50;60.50;;;;;;4952001;29;20351;-78
2022/11/01 00:06:39;;;;;;;1.20;0.55;;;22.60;61.50;;;;;;4950548;29;20231;-77
2022/11/01 00:09:11;;;;;;;2.85;0.22;;;22.30;60.00;;;;;;4951049;29;20196;-78
2022/11/01 00:11:42;;;;;;;1.17;0.10;;;22.40;61.00;;;;;;4950564;28;20234;-79
2022/11/01 00:14:17;;;;;;;0.20;0.20;;;22.70;60.40;;;;;;4947782;29;20674;-78
2022/11/01 00:16:48;;;;;;;0.40;0.30;;;22.70;59.90;;;;;;4932920;29;20315;-78
2022/11/01 00:19:19;;;;;;;1.45;0.15;;;23.00;59.90;;;;;;4941224;29;20204;-78
2022/11/01 00:21:50;;;;;;;0.63;0.13;;;22.70;59.50;;;;;;4951997;29;20286;-78
2022/11/01 00:24:21;;;;;;;0.10;0.10;;;22.80;59.60;;;;;;4948852;29;20196;-78
2022/11/01 00:26:53;;;;;;;4.18;0.28;;;22.90;57.80;;;;;;4953974;28;20211;-79
2022/11/01 00:29:26;;;;;;;1.23;0.30;;;22.80;57.40;;;;;;4948738;29;20196;-79
2022/11/01 00:31:59;;;;;;;0.15;0.10;;;23.00;58.00;;;;;;4952453;29;20204;-79
2022/11/01 00:34:30;;;;;;;0.20;0.20;;;23.00;58.70;;;;;;4951885;29;20305;-77
2022/11/01 00:37:01;;;;;;;0.65;0.22;;;23.30;58.20;;;;;;4949195;29;20230;-77
2022/11/01 00:39:33;;;;;;;0.20;0.10;;;23.30;59.30;;;;;;4951723;29;20200;-77
2022/11/01 00:42:04;;;;;;;0.70;0.20;;;23.20;63.30;;;;;;4954815;28;20585;-78
2022/11/01 00:44:36;;;;;;;0.03;0.03;;;23.40;62.30;;;;;;4964655;28;20205;-78
2022/11/01 00:47:07;;;;;;;0.68;0.20;;;23.60;61.40;;;;;;4985651;28;20659;-77
2022/11/01 00:49:38;;;;;;;6.22;0.28;;;23.70;60.20;;;;;;4970035;28;20232;-78
2022/11/01 00:52:09;;;;;;;1.45;0.10;;;23.60;59.20;;;;;;4970643;28;20207;-77
2022/11/01 00:54:40;;;;;;;0.95;0.10;;;23.40;54.90;;;;;;4968371;29;20235;-77
2022/11/01 00:57:11;;;;;;;0.10;0.10;;;23.40;54.50;;;;;;4954601;28;20228;-78
2022/11/01 00:59:44;;;;;;;0.52;0.20;;;23.40;53.50;;;;;;4954567;29;20212;-77
2022/11/01 01:02:15;;;;;;;1.55;0.10;;;23.20;52.20;;;;;;4956360;28;20659;-78
2022/11/01 01:04:47;;;;;;;0.20;0.10;;;23.10;52.90;;;;;;4950858;29;20210;-77
2022/11/01 01:07:18;;;;;;;2.00;0.15;;;23.00;53.50;;;;;;4953164;29;20207;-78
2022/11/01 01:09:49;;;;;;;1.98;0.50;;;23.10;53.30;;;;;;4952045;29;20204;-77
2022/11/01 01:12:20;;;;;;;0.45;0.30;;;23.00;52.40;;;;;;4951738;29;20196;-77
2022/11/01 01:14:53;;;;;;;0.47;0.20;;;23.10;52.90;;;;;;4949247;29;20558;-78
2022/11/01 01:17:24;;;;;;;0.20;0.10;;;23.20;53.80;;;;;;4951537;29;20290;-76
2022/11/01 01:19:55;;;;;;;0.10;0.08;;;23.50;54.70;;;;;;4948589;28;20204;-78
2022/11/01 01:22:26;;;;;;;0.20;0.10;;;23.30;51.70;;;;;;4944311;29;20632;-78
2022/11/01 01:24:56;;;;;;;2.10;0.10;;;23.10;52.40;;;;;;4955115;29;20204;-78
2022/11/01 01:27:27;;;;;;;0.38;0.10;;;23.30;52.60;;;;;;4954374;29;20549;-78
2022/11/01 01:30:00;;;;;;;0.85;0.10;;;23.50;51.90;;;;;;4954457;29;20563;-78
2022/11/01 01:32:31;;;;;;;2.10;0.13;;;23.60;51.90;;;;;;4952688;29;20686;-78
2022/11/01 01:35:02;;;;;;;2.83;0.10;;;23.50;51.80;;;;;;4955004;28;20203;-77
2022/11/01 01:37:33;;;;;;;0.43;0.20;;;23.60;52.50;;;;;;4953845;29;20295;-77
2022/11/01 01:40:05;;;;;;;0.20;0.10;;;23.60;51.20;;;;;;4954979;28;20455;-77
2022/11/01 01:42:37;;;;;;;0.85;0.30;;;23.70;51.50;;;;;;4953760;28;20216;-77
2022/11/01 01:45:34;;;;;;;0.38;0.20;;;23.70;51.80;;;;;;4952470;29;20246;-78
2022/11/01 01:48:11;;;;;;;0.70;0.30;;;23.80;51.90;;;;;;4953076;29;20663;-78
2022/11/01 01:50:46;;;;;;;2.15;0.60;;;23.90;51.70;;;;;;4951057;29;20380;-78
2022/11/01 01:53:22;;;;;;;0.47;0.10;;;24.10;50.10;;;;;;4953258;28;20219;-78
2022/11/01 01:55:58;;;;;;;0.60;0.20;;;24.20;50.30;;;;;;4952082;29;20592;-78
2022/11/01 01:58:32;;;;;;;1.42;0.20;;;24.30;50.40;;;;;;4954859;29;20207;-78
2022/11/01 02:01:04;;;;;;;1.67;0.10;;;24.30;51.40;;;;;;4936977;29;20659;-78
2022/11/01 02:03:36;;;;;;;0.28;0.10;;;24.60;51.70;;;;;;4934773;28;20293;-78
2022/11/01 02:06:12;;;;;;;0.10;0.08;;;24.70;50.10;;;;;;4951823;29;20196;-78
2022/11/01 02:08:45;;;;;;;1.20;0.30;;;24.80;50.40;;;;;;4954085;28;20199;-78
2022/11/01 02:11:18;;;;;;;0.10;0.10;;;24.90;50.50;;;;;;4953841;29;20223;-79
2022/11/01 02:13:49;;;;;;;0.10;0.10;;;25.00;49.00;;;;;;4953068;29;20212;-79
2022/11/01 02:16:53;;;;;;;1.95;0.20;;;24.90;48.80;;;;;;4952115;29;20259;-79
2022/11/01 02:20:15;;;;;;;0.90;0.20;;;24.80;48.70;;;;;;4942075;29;20198;-78
2022/11/01 02:23:05;;;;;;;0.10;0.10;;;24.80;49.70;;;;;;4935821;29;20200;-79
2022/11/01 02:25:55;;;;;;;0.45;0.10;;;24.90;48.20;;;;;;4952040;28;20552;-78
2022/11/01 02:28:42;;;;;;;0.45;0.10;;;24.80;46.60;;;;;;4953993;29;20660;-79
2022/11/01 02:31:37;;;;;;;0.25;0.17;;;24.70;47.00;;;;;;4935508;29;20206;-78
2022/11/01 02:34:16;;;;;;;1.75;0.13;;;24.80;48.60;;;;;;4938114;29;20208;-78
2022/11/01 02:36:54;;;;;;;0.10;0.10;;;24.60;50.40;;;;;;4952339;29;20233;-78
2022/11/01 02:39:29;;;;;;;0.20;0.10;;;24.80;51.60;;;;;;4951609;29;20558;-78
2022/11/01 02:42:04;;;;;;;1.25;0.15;;;24.90;52.10;;;;;;4953965;29;20203;-78
2022/11/01 02:44:39;;;;;;;0.60;0.20;;;24.90;52.30;;;;;;4953148;28;20217;-77
2022/11/01 02:47:11;;;;;;;0.10;0.10;;;24.90;52.80;;;;;;4951705;29;20210;-77
2022/11/01 02:49:45;;;;;;;3.10;0.28;;;25.10;50.60;;;;;;4948892;28;20196;-77
2022/11/01 02:52:20;;;;;;;0.10;0.05;;;25.30;50.90;;;;;;4953193;29;20210;-78
2022/11/01 02:54:54;;;;;;;1.88;0.10;;;25.30;50.00;;;;;;4950811;29;20223;-78
2022/11/01 02:57:35;;;;;;;0.00;0.00;;;25.30;50.00;;;;;;4952105;29;20241;-77
2022/11/01 03:00:21;;;;;;;0.98;0.10;;;25.10;49.60;;;;;;4951669;28;20242;-77
2022/11/01 03:02:55;;;;;;;0.20;0.10;;;25.00;49.90;;;;;;4951130;29;20282;-78
2022/11/01 03:05:38;;;;;;;0.10;0.10;;;24.70;51.70;;;;;;4938886;29;20196;-78
2022/11/01 03:08:11;;;;;;;1.05;0.10;;;24.90;51.60;;;;;;4948809;29;20210;-78
2022/11/01 03:10:51;;;;;;;0.00;0.00;;;24.90;50.40;;;;;;4935059;29;20207;-78
2022/11/01 03:13:46;;;;;;;0.10;0.10;;;24.90;49.80;;;;;;4932954;29;20323;-78
2022/11/01 03:16:23;;;;;;;0.45;0.20;;;24.90;48.40;;;;;;4941222;29;20227;-78
2022/11/01 03:19:11;;;;;;;2.08;0.28;;;25.00;50.70;;;;;;4951131;28;20670;-78
2022/11/01 03:21:51;;;;;;;0.25;0.10;;;25.40;46.70;;;;;;4953190;29;20655;-78
2022/11/01 03:24:26;;;;;;;1.02;0.15;;;25.70;46.20;;;;;;4951543;29;20196;-78
2022/11/01 03:27:03;;;;;;;0.30;0.10;;;25.90;44.70;;;;;;4951548;29;20214;-77
2022/11/01 03:29:36;;;;;;;0.10;0.10;;;26.00;45.30;;;;;;4950632;29;20287;-78
2022/11/01 03:32:08;;;;;;;0.00;0.00;;;25.70;45.20;;;;;;4950153;29;20231;-78
2022/11/01 03:34:41;;;;;;;1.75;0.10;;;25.80;45.60;;;;;;4951208;28;20294;-78
2022/11/01 03:37:17;;;;;;;0.40;0.10;;;26.00;44.20;;;;;;4950841;29;20263;-79
2022/11/01 03:39:49;;;;;;;1.17;0.15;;;26.10;44.00;;;;;;4951788;29;20203;-79
2022/11/01 03:42:23;;;;;;;0.20;0.15;;;25.90;44.10;;;;;;4949589;29;20741;-79
2022/11/01 03:44:59;;;;;;;0.28;0.17;;;25.70;44.50;;;;;;4948797;28;20204;-79
2022/11/01 03:47:30;;;;;;;0.10;0.10;;;25.80;45.70;;;;;;4952528;29;20219;-78
2022/11/01 03:50:21;;;;;;;0.70;0.20;;;26.10;45.80;;;;;;4948812;29;20210;-78
2022/11/01 03:52:54;;;;;;;1.08;0.10;;;26.20;46.20;;;;;;4932546;28;20208;-78
2022/11/01 03:55:26;;;;;;;0.10;0.10;;;26.30;46.00;;;;;;4951172;29;20234;-78
2022/11/01 03:57:58;;;;;;;0.10;0.10;;;26.50;44.80;;;;;;4950961;29;20350;-79
2022/11/01 04:00:30;;;;;;;0.10;0.10;;;26.00;43.30;;;;;;4951924;29;20203;-77
2022/11/01 04:03:01;;;;;;;0.13;0.10;;;25.60;45.00;;;;;;4951291;29;20663;-77
2022/11/01 04:05:33;;;;;;;0.73;0.10;;;25.30;45.60;;;;;;4950759;29;20206;-77
2022/11/01 04:08:06;;;;;;;0.10;0.10;;;25.60;45.60;;;;;;4955739;28;20207;-77
2022/11/01 04:10:37;;;;;;;1.55;0.10;;;26.00;46.40;;;;;;4953410;28;20200;-77
2022/11/01 04:13:08;;;;;;;1.55;0.20;;;26.10;45.60;;;;;;4949485;29;20207;-78
2022/11/01 04:21:14;;;;;;;0.20;0.17;;;26.10;45.80;;;;;;4951713;29;20330;-77
2022/11/01 04:23:47;;;;;;;0.08;0.00;;;26.30;42.80;;;;;;4947314;29;20204;-76
2022/11/01 04:26:20;;;;;;;0.43;0.05;;;26.70;43.50;;;;;;4964960;28;20199;-77
2022/11/01 04:28:57;;;;;;;0.00;0.00;;;26.30;42.20;;;;;;4967366;28;20282;-76
2022/11/01 04:31:29;;;;;;;0.55;0.10;;;26.10;43.20;;;;;;4950861;29;20203;-76
2022/11/01 04:34:00;;;;;;;1.23;0.15;;;25.50;42.60;;;;;;4950737;29;20202;-76
2022/11/01 04:36:31;;;;;;;0.10;0.10;;;25.10;43.30;;;;;;4949762;29;20224;-76
2022/11/01 04:39:04;;;;;;;0.20;0.17;;;24.80;45.30;;;;;;4950806;29;20204;-76
2022/11/01 04:41:36;;;;;;;1.30;0.20;;;24.50;44.90;;;;;;4949765;28;20208;-76
2022/11/01 04:44:07;;;;;;;0.15;0.10;;;24.40;46.10;;;;;;4949807;29;20203;-76
2022/11/01 04:46:37;;;;;;;2.35;0.10;;;24.40;45.80;;;;;;4932613;29;20208;-76
2022/11/01 04:49:08;;;;;;;0.35;0.05;;;24.40;45.90;;;;;;4944363;29;20208;-77
2022/11/01 04:51:40;;;;;;;0.15;0.08;;;24.30;46.60;;;;;;4941472;29;20210;-76
2022/11/01 04:54:12;;;;;;;0.80;0.10;;;24.40;47.10;;;;;;4950695;29;20197;-76
2022/11/01 04:56:43;;;;;;;1.73;0.10;;;24.40;46.80;;;;;;4951475;28;20679;-76
2022/11/01 04:59:14;;;;;;;0.28;0.10;;;24.30;47.30;;;;;;4958736;28;20208;-77
2022/11/01 05:01:45;;;;;;;0.82;0.20;;;24.10;44.80;;;;;;4951105;29;20206;-77
2022/11/01 05:04:15;;;;;;;2.00;0.13;;;23.90;45.00;;;;;;4950881;28;20212;-76
2022/11/01 05:06:46;;;;;;;0.10;0.10;;;23.80;45.50;;;;;;4951930;28;20212;-75
2022/11/01 05:09:19;;;;;;;0.43;0.25;;;23.70;47.60;;;;;;4944766;28;20192;-76
2022/11/01 05:11:50;;;;;;;0.20;0.20;;;23.50;49.50;;;;;;4953560;29;20200;-76
2022/11/01 05:14:20;;;;;;;0.28;0.20;;;23.30;49.70;;;;;;4953039;29;20200;-77
2022/11/01 05:16:51;;;;;;;0.55;0.20;;;22.90;51.90;;;;;;4943717;28;20227;-77
2022/11/01 05:19:22;;;;;;;0.20;0.20;;;22.60;53.20;;;;;;4940421;29;20680;-76
2022/11/01 05:21:53;;;;;;;0.30;0.30;;;22.50;55.40;;;;;;4954229;29;20204;-76
2022/11/01 05:24:25;;;;;;;0.95;0.20;;;22.40;56.30;;;;;;4947678;29;20211;-76
2022/11/01 05:26:56;;;;;;;1.83;0.20;;;22.10;57.40;;;;;;4949404;29;20195;-75
2022/11/01 05:29:27;;;;;;;0.20;0.20;;;22.00;57.80;;;;;;4940777;29;20204;-78
2022/11/01 05:31:58;;;;;;;1.85;0.20;;;21.90;59.20;;;;;;4945001;29;20208;-77
2022/11/01 05:34:28;;;;;;;2.72;0.28;;;21.60;76.90;;;;;;4952960;28;20206;-78
2022/11/01 05:37:00;;;;;;;2.53;0.60;;;21.20;90.90;;;;;;4955517;29;20236;-77
2022/11/01 05:39:33;;;;;;;1.13;0.30;;;21.20;94.50;;;;;;4955716;29;20200;-78
2022/11/01 05:42:04;;;;;;;1.63;0.20;;;21.40;99.20;;;;;;4952280;29;20200;-77
2022/11/01 05:44:35;;;;;;;0.35;0.20;;;21.50;97.70;;;;;;4952306;28;20196;-77
2022/11/01 05:47:06;;;;;;;0.25;0.20;;;21.70;92.10;;;;;;4938385;29;20663;-77
2022/11/01 05:49:37;;;;;;;1.75;0.20;;;22.10;91.60;;;;;;4938705;28;20219;-77
2022/11/01 05:52:09;;;;;;;1.38;0.20;;;22.80;85.30;;;;;;4951243;29;20662;-77
2022/11/01 05:54:41;;;;;;;0.30;0.28;;;23.50;80.10;;;;;;4953846;29;20663;-77
2022/11/01 05:57:12;;;;;;;2.35;0.20;;;23.80;77.60;;;;;;4953746;29;20290;-76
2022/11/01 05:59:44;;;;;;;2.40;0.20;;;23.00;77.60;;;;;;4952743;29;20196;-78
2022/11/01 06:02:15;;;;;;;0.43;0.10;;;23.10;79.50;;;;;;4954002;29;20559;-78
2022/11/01 06:04:48;;;;;;;0.43;0.20;;;23.20;77.90;;;;;;4941419;29;20204;-78
2022/11/01 06:07:19;;;;;;;2.03;0.30;;;23.10;77.20;;;;;;4953696;28;20210;-78
2022/11/01 06:09:52;;;;;;;0.10;0.10;;;22.30;80.30;;;;;;4952560;29;20197;-78
2022/11/01 06:12:26;;;;;;;0.52;0.10;;;21.70;81.30;;;;;;4951745;29;20200;-78
2022/11/01 06:14:57;;;;;;;0.60;0.25;;;21.30;82.40;;;;;;4952817;29;20651;-78
2022/11/01 06:17:28;;;;;;;1.45;0.22;;;21.10;85.20;;;;;;4952212;29;20247;-78
2022/11/01 06:19:59;;;;;;;0.30;0.10;;;20.80;87.00;;;;;;4942007;29;20200;-78
2022/11/01 06:22:30;;;;;;;0.40;0.20;;;20.40;90.30;;;;;;4953454;29;20204;-78
2022/11/01 06:25:03;;;;;;;0.28;0.20;;;20.50;90.70;;;;;;4952436;28;20195;-77
2022/11/01 06:27:34;;;;;;;0.40;0.28;;;20.90;90.10;;;;;;4952946;29;20279;-77
2022/11/01 06:30:05;;;;;;;0.40;0.40;;;20.80;90.70;;;;;;4952706;29;20202;-76
2022/11/01 06:32:36;;;;;;;2.22;0.60;;;20.70;91.00;;;;;;4951382;29;20212;-76
2022/11/01 06:35:07;;;;;;;0.75;0.30;;;21.10;90.80;;;;;;4950800;29;20973;-77
2022/11/01 06:37:38;;;;;;;1.17;0.40;;;21.20;90.20;;;;;;4944935;29;20224;-77
2022/11/01 06:40:12;;;;;;;0.50;0.25;;;21.50;88.60;;;;;;4951823;29;20207;-77
2022/11/01 06:42:44;;;;;;;3.88;3.47;;;21.50;87.90;;;;;;4952378;28;20269;-77
2022/11/01 06:45:17;;;;;;;3.63;2.15;;;21.40;88.70;;;;;;4954274;29;20283;-76
2022/11/01 06:47:51;;;;;;;1.42;1.33;;;22.60;87.00;;;;;;4951348;29;20205;-77
2022/11/01 06:50:22;;;;;;;4.20;3.60;;;23.80;80.80;;;;;;4945172;29;20196;-77
2022/11/01 06:52:53;;;;;;;1.20;0.98;;;24.90;72.80;;;;;;4952258;29;20200;-77
2022/11/01 06:55:29;;;;;;;0.55;0.50;;;25.20;67.70;;;;;;4951908;29;20268;-75
2022/11/01 06:58:00;;;;;;;0.95;0.50;;;25.20;66.30;;;;;;4942073;28;20230;-76
2022/11/01 07:00:32;;;;;;;0.95;0.40;;;25.30;61.90;;;;;;4962057;28;20279;-77
2022/11/01 07:03:04;;;;;;;0.45;0.30;;;25.80;64.00;;;;;;4951408;29;20667;-77
2022/11/01 07:05:37;;;;;;;1.60;0.68;;;26.40;58.10;;;;;;4950955;29;20196;-76
2022/11/01 07:08:09;;;;;;;0.50;0.40;;;25.60;59.70;;;;;;4952052;29;20208;-77
2022/11/01 07:10:44;;;;;;;1.67;1.10;;;25.10;60.40;;;;;;4945071;29;20315;-77
2022/11/01 07:13:15;;;;;;;1.63;0.88;;;25.70;59.70;;;;;;4943036;29;20207;-77
2022/11/01 07:15:46;;;;;;;1.63;0.95;;;26.10;57.00;;;;;;4958138;28;20561;-77
2022/11/01 07:18:17;;;;;;;2.05;1.00;;;26.20;56.70;;;;;;4966326;28;20254;-78
2022/11/01 07:20:48;;;;;;;3.80;0.75;;;25.60;56.50;;;;;;4939859;28;20609;-76
2022/11/01 07:23:19;;;;;;;1.45;0.55;;;24.90;57.10;;;;;;4935734;29;20192;-77
2022/11/01 07:25:54;;;;;;;0.60;0.60;;;23.80;59.20;;;;;;4950884;29;20199;-77
2022/11/01 07:28:25;;;;;;;0.30;0.30;;;23.30;62.70;;;;;;4951814;29;20199;-78
2022/11/01 07:30:56;;;;;;;0.50;0.20;;;23.10;63.80;;;;;;4944610;29;20207;-77
2022/11/01 07:33:27;;;;;;;0.50;0.20;;;22.90;64.30;;;;;;4952720;28;20291;-78
2022/11/01 07:35:58;;;;;;;1.00;0.60;;;22.80;67.80;;;;;;4951919;29;20290;-77
2022/11/01 07:38:32;;;;;;;1.63;0.30;;;22.70;69.30;;;;;;4952006;29;20234;-78
2022/11/01 07:41:06;;;;;;;1.52;0.22;;;22.70;68.90;;;;;;4951417;29;20246;-77
2022/11/01 07:43:37;;;;;;;0.30;0.20;;;22.50;68.80;;;;;;4951523;29;20214;-77
2022/11/01 07:46:08;;;;;;;0.30;0.30;;;22.30;69.80;;;;;;4942741;29;20264;-77
2022/11/01 07:48:39;;;;;;;0.10;0.10;;;22.30;70.70;;;;;;4952390;28;20311;-77
2022/11/01 07:51:09;;;;;;;0.22;0.20;;;22.20;71.70;;;;;;4943610;29;20303;-77
2022/11/01 07:53:41;;;;;;;2.00;0.22;;;22.10;72.70;;;;;;4949159;29;20204;-78
2022/11/01 07:56:14;;;;;;;1.58;0.40;;;22.00;75.10;;;;;;4939558;29;20217;-77
2022/11/01 07:58:45;;;;;;;0.82;0.35;;;22.00;79.30;;;;;;4940571;29;20270;-77
2022/11/01 08:01:16;;;;;;;2.22;0.55;;;21.80;77.90;;;;;;4950218;29;20560;-77
2022/11/01 08:03:48;;;;;;;0.20;0.20;;;21.60;73.80;;;;;;4945903;28;20203;-77
2022/11/01 08:06:19;;;;;;;0.30;0.20;;;21.30;70.20;;;;;;4946297;28;20263;-76
2022/11/01 08:08:50;;;;;;;0.20;0.13;;;21.00;68.60;;;;;;4945110;29;20274;-77
2022/11/01 08:11:22;;;;;;;0.40;0.10;;;20.80;73.20;;;;;;4946523;29;20579;-78
2022/11/01 08:13:53;;;;;;;0.30;0.30;;;20.70;71.20;;;;;;4939850;29;20726;-78
2022/11/01 08:16:24;;;;;;;0.32;0.10;;;20.50;70.70;;;;;;4940125;28;20711;-78
2022/11/01 08:18:55;;;;;;;1.85;0.30;;;20.50;73.30;;;;;;4946757;29;20235;-77
2022/11/01 08:21:25;;;;;;;0.30;0.10;;;20.30;76.60;;;;;;4944711;29;20677;-78
2022/11/01 08:23:56;;;;;;;0.80;0.30;;;20.10;80.30;;;;;;4952270;28;20200;-78
2022/11/01 08:26:32;;;;;;;0.65;0.10;;;20.10;83.30;;;;;;4948700;29;20302;-77
2022/11/01 08:29:04;;;;;;;1.75;0.10;;;19.90;85.30;;;;;;4949745;29;20208;-76
2022/11/01 08:31:35;;;;;;;0.20;0.20;;;19.70;89.10;;;;;;4950724;28;20291;-75
2022/11/01 08:34:06;;;;;;;0.52;0.20;;;19.70;91.20;;;;;;4946677;29;20223;-77
2022/11/01 08:36:37;;;;;;;0.93;0.38;;;19.50;92.20;;;;;;4938390;29;20224;-76
2022/11/01 08:39:08;;;;;;;0.10;0.10;;;19.50;94.60;;;;;;4944635;29;20224;-76
2022/11/01 08:41:41;;;;;;;0.63;0.30;;;19.50;95.70;;;;;;4951044;28;20200;-77
2022/11/01 08:44:12;;;;;;;0.10;0.10;;;19.60;96.20;;;;;;4952283;29;20196;-76
2022/11/01 08:46:44;;;;;;;0.35;0.15;;;19.60;94.60;;;;;;4945063;29;20227;-77
2022/11/01 08:49:15;;;;;;;0.75;0.10;;;19.50;94.20;;;;;;4945248;29;20200;-77
2022/11/01 08:51:46;;;;;;;0.10;0.10;;;19.40;93.90;;;;;;4953716;29;20200;-77
2022/11/01 08:54:17;;;;;;;0.40;0.20;;;19.40;95.20;;;;;;4950480;29;20208;-76
2022/11/01 08:56:50;;;;;;;0.47;0.20;;;19.30;94.30;;;;;;4953449;28;20622;-77
2022/11/01 08:59:21;;;;;;;0.10;0.10;;;19.20;95.00;;;;;;4949887;29;20262;-77
2022/11/01 09:04:56;;;;;;;0.10;0.10;;;19.20;96.30;;;;;;4954156;29;20216;-76
2022/11/01 09:07:27;;;;;;;0.28;0.20;;;18.90;98.50;;;;;;4957763;29;20210;-77
2022/11/01 09:09:58;;;;;;;0.20;0.20;;;18.70;99.90;;;;;;4953085;29;20567;-77
2022/11/01 09:12:32;;;;;;;0.22;0.20;;;18.70;99.90;;;;;;4953156;29;20659;-76
2022/11/01 09:15:04;;;;;;;0.40;0.20;;;18.60;99.90;;;;;;4956686;28;20205;-76
2022/11/01 09:17:34;;;;;;;1.00;0.10;;;18.70;99.90;;;;;;4952435;28;20232;-72
2022/11/01 09:20:05;;;;;;;1.45;0.10;;;18.60;99.90;;;;;;4950325;29;20279;-76
2022/11/01 09:22:37;;;;;;;0.52;0.15;;;18.50;99.90;;;;;;4951334;29;20212;-77
2022/11/01 09:25:08;;;;;;;0.10;0.10;;;18.50;99.90;;;;;;4942906;29;20677;-77
2022/11/01 09:27:48;;;;;;;0.40;0.15;;;18.50;99.90;;;;;;4948496;29;20203;-78
2022/11/01 09:30:22;;;;;;;0.20;0.10;;;18.50;99.90;;;;;;4950010;29;20196;-77
2022/11/01 09:32:53;;;;;;;0.10;0.10;;;18.60;99.90;;;;;;4956650;28;20196;-78
2022/11/01 09:35:24;;;;;;;0.13;0.10;;;18.60;99.90;;;;;;4954969;29;20227;-76
2022/11/01 09:38:01;;;;;;;0.10;0.10;;;18.60;99.90;;;;;;4942995;29;20717;-76
2022/11/01 09:40:38;;;;;;;0.68;0.10;;;18.70;99.90;;;;;;4955539;29;20278;-76
2022/11/01 09:43:14;;;;;;;1.30;0.20;;;18.60;99.90;;;;;;4962135;28;20195;-75
2022/11/01 09:45:45;;;;;;;0.10;0.10;;;18.50;99.90;;;;;;4958432;28;20220;-76
2022/11/01 09:48:18;;;;;;;0.45;0.20;;;18.60;99.90;;;;;;4948111;28;20536;-76
2022/11/01 09:50:50;;;;;;;0.15;0.10;;;18.70;99.90;;;;;;4954252;29;20209;-74
2022/11/01 09:53:25;;;;;;;1.30;0.10;;;18.50;99.90;;;;;;4952227;29;20192;-76
2022/11/01 09:56:08;;;;;;;0.10;0.10;;;18.60;99.90;;;;;;4957689;29;20725;-76
2022/11/01 09:58:57;;;;;;;0.10;0.10;;;18.60;99.90;;;;;;4957291;29;20224;-75
2022/11/01 10:01:43;;;;;;;0.20;0.10;;;18.40;99.90;;;;;;4955997;29;20509;-76
2022/11/01 10:07:40;;;;;;;0.17;0.10;;;18.10;99.90;;;;;;4948791;28;20625;-76
2022/11/01 10:10:25;;;;;;;1.27;0.20;;;18.20;99.90;;;;;;4947533;29;20758;-76
2022/11/01 10:13:08;;;;;;;0.10;0.10;;;18.30;99.90;;;;;;4944617;29;20671;-76
2022/11/01 10:15:53;;;;;;;0.10;0.10;;;18.30;99.90;;;;;;4943909;29;20224;-75
2022/11/01 10:18:29;;;;;;;0.40;0.10;;;18.30;99.90;;;;;;4953284;29;20685;-75
2022/11/01 10:21:03;;;;;;;0.50;0.20;;;18.40;99.90;;;;;;4960419;29;20207;-75
2022/11/01 10:23:44;;;;;;;2.28;0.13;;;18.30;99.90;;;;;;4958263;28;20220;-75
2022/11/01 10:26:19;;;;;;;0.00;0.00;;;18.30;99.90;;;;;;4950302;29;20195;-76
2022/11/01 10:29:11;;;;;;;0.17;0.10;;;18.30;99.90;;;;;;4961084;29;20216;-76
2022/11/01 10:31:49;;;;;;;1.30;0.17;;;18.20;99.90;;;;;;4955118;29;20231;-76
2022/11/01 10:34:27;;;;;;;0.10;0.10;;;18.10;99.90;;;;;;4958886;29;20299;-77
2022/11/01 10:37:06;;;;;;;0.00;0.00;;;17.90;99.90;;;;;;4942774;29;20243;-77
2022/11/01 10:39:46;;;;;;;1.65;0.10;;;17.80;99.90;;;;;;4959233;28;20235;-76
2022/11/01 10:42:20;;;;;;;0.10;0.10;;;17.60;99.90;;;;;;4962136;29;20552;-76
2022/11/01 10:45:07;;;;;;;0.47;0.10;;;17.60;99.90;;;;;;4960476;29;20306;-75
2022/11/01 10:47:45;;;;;;;0.13;0.10;;;17.60;99.90;;;;;;4962639;29;20701;-75
2022/11/01 10:50:28;;;;;;;0.17;0.10;;;17.60;99.90;;;;;;4951277;29;20211;-76
2022/11/01 10:56:02;;;;;;;1.65;0.13;;;17.70;99.90;;;;;;4954123;28;20670;-76
2022/11/01 10:58:42;;;;;;;0.17;0.17;;;17.70;99.90;;;;;;4951220;29;20230;-77
2022/11/01 11:01:23;;;;;;;0.32;0.25;;;17.70;99.90;;;;;;4947184;29;20209;-76
2022/11/01 11:04:04;;;;;;;0.10;0.10;;;17.60;99.90;;;;;;4948557;29;20262;-75
2022/11/01 11:06:41;;;;;;;0.10;0.10;;;17.60;99.90;;;;;;4947790;29;20204;-77
2022/11/01 11:09:23;;;;;;;0.10;0.10;;;17.70;99.90;;;;;;4957612;29;20207;-76
2022/11/01 11:11:58;;;;;;;0.10;0.10;;;17.70;99.90;;;;;;4948573;29;20573;-76
2022/11/01 11:14:33;;;;;;;0.10;0.10;;;17.70;99.90;;;;;;4958762;28;20204;-76
2022/11/01 11:17:27;;;;;;;1.38;0.10;;;17.60;99.90;;;;;;5114225;27;20495;-77
2022/11/01 11:20:03;;;;;;;0.43;0.20;;;17.70;99.90;;;;;;5086816;28;20187;-77
2022/11/01 11:25:29;;;;;;;0.47;0.20;;;17.50;99.90;;;;;;5087987;28;20203;-76
2022/11/01 11:28:02;;;;;;;0.10;0.10;;;17.40;99.90;;;;;;5085092;28;20211;-77
2022/11/01 11:30:35;;;;;;;0.10;0.10;;;17.40;99.90;;;;;;5079972;28;20203;-77
2022/11/01 11:33:21;;;;;;;0.20;0.10;;;17.30;99.90;;;;;;5078316;28;20190;-76
2022/11/01 11:36:02;;;;;;;0.90;0.20;;;17.30;99.90;;;;;;5091414;28;20226;-76
2022/11/01 11:38:48;;;;;;;0.10;0.10;;;17.20;99.90;;;;;;5075309;28;20214;-76
2022/11/01 11:41:32;;;;;;;0.10;0.10;;;17.20;99.90;;;;;;5086837;28;20179;-75
2022/11/01 11:44:04;;;;;;;0.03;0.03;;;17.20;99.90;;;;;;5073708;28;20612;-76
2022/11/01 11:46:35;;;;;;;0.00;0.00;;;17.10;99.90;;;;;;5083178;28;20298;-76
2022/11/01 11:49:27;;;;;;;0.10;0.10;;;17.00;99.90;;;;;;5074856;28;20290;-78
2022/11/01 11:52:01;;;;;;;0.45;0.00;;;17.10;99.90;;;;;;5084645;28;20210;-76
2022/11/01 11:54:36;;;;;;;0.10;0.10;;;17.00;99.90;;;;;;5091100;28;20392;-76
2022/11/01 11:57:20;;;;;;;0.47;0.20;;;17.00;99.90;;;;;;5096943;28;20305;-77
2022/11/01 11:59:57;;;;;;;0.10;0.10;;;16.90;99.90;;;;;;5076261;28;20646;-77
2022/11/01 12:02:31;;;;;;;0.10;0.10;;;16.90;99.90;;;;;;5074364;28;20666;-77
2022/11/01 12:05:07;;;;;;;0.10;0.10;;;16.90;99.90;;;;;;5071004;28;20205;-76
2022/11/01 12:07:48;;;;;;;0.10;0.10;;;16.80;99.90;;;;;;5085283;28;20269;-76
2022/11/01 12:10:33;;;;;;;0.00;0.00;;;16.80;99.90;;;;;;5079589;28;20467;-76
2022/11/01 12:13:05;;;;;;;0.10;0.10;;;16.80;99.90;;;;;;5077443;28;20195;-76
2022/11/01 12:15:37;;;;;;;0.10;0.10;;;16.70;99.90;;;;;;5086623;28;20709;-77
2022/11/01 12:18:16;;;;;;;2.08;0.10;;;16.50;99.90;;;;;;5091601;28;20238;-76
2022/11/01 12:20:52;;;;;;;0.00;0.00;;;16.60;99.90;;;;;;5083663;28;20215;-76
2022/11/01 12:23:30;;;;;;;0.10;0.00;;;16.60;99.90;;;;;;5086638;28;20199;-76
2022/11/01 12:26:07;;;;;;;0.10;0.10;;;16.60;99.90;;;;;;5082577;28;20607;-76
2022/11/01 12:28:41;;;;;;;0.40;0.10;;;16.60;99.90;;;;;;5078547;28;20219;-77
2022/11/01 12:31:17;;;;;;;0.00;0.00;;;16.70;99.90;;;;;;5065519;28;20204;-77
2022/11/01 12:33:53;;;;;;;0.20;0.10;;;16.70;99.90;;;;;;5063234;28;20212;-77
2022/11/01 12:36:34;;;;;;;0.10;0.10;;;16.70;99.90;;;;;;5067886;28;20235;-77
2022/11/01 12:39:14;;;;;;;0.00;0.00;;;16.70;99.90;;;;;;5070774;28;20259;-77
2022/11/01 12:41:50;;;;;;;0.95;0.10;;;16.60;99.90;;;;;;5067921;28;20215;-76
2022/11/01 12:44:35;;;;;;;0.13;0.10;;;16.50;99.90;;;;;;5067518;28;20192;-76
2022/11/01 12:47:14;;;;;;;0.43;0.10;;;16.40;99.90;;;;;;5058967;28;20224;-76
2022/11/01 12:49:52;;;;;;;0.08;0.08;;;16.30;99.90;;;;;;5065439;28;20610;-77
2022/11/01 12:52:32;;;;;;;0.00;0.00;;;16.30;99.90;;;;;;5058339;28;20279;-77
2022/11/01 12:55:09;;;;;;;0.20;0.20;;;16.30;99.90;;;;;;5055900;28;20200;-77
2022/11/01 12:57:40;;;;;;;0.10;0.10;;;16.20;99.90;;;;;;5052713;28;20196;-77
2022/11/01 13:00:19;;;;;;;0.20;0.10;;;16.10;99.90;;;;;;5071569;28;20291;-77
2022/11/01 13:03:14;;;;;;;0.00;0.00;;;16.10;99.90;;;;;;5062580;28;20252;-76
2022/11/01 13:05:52;;;;;;;0.10;0.10;;;16.20;99.90;;;;;;5070880;28;20208;-76
2022/11/01 13:08:34;;;;;;;0.13;0.10;;;16.20;99.90;;;;;;5061041;28;20589;-77
2022/11/01 13:11:13;;;;;;;0.32;0.08;;;16.20;99.90;;;;;;5059380;28;20201;-76
2022/11/01 13:13:48;;;;;;;0.00;0.00;;;16.20;99.90;;;;;;5070672;28;20603;-77
2022/11/01 13:16:25;;;;;;;0.30;0.10;;;16.20;99.90;;;;;;5073698;28;20251;-75
2022/11/01 13:19:03;;;;;;;0.03;0.03;;;16.40;99.90;;;;;;5068088;28;20318;-75
2022/11/01 13:21:38;;;;;;;0.10;0.10;;;16.50;99.90;;;;;;5068791;28;20212;-75
2022/11/01 13:24:19;;;;;;;2.75;0.10;;;16.40;99.90;;;;;;5060239;28;20203;-75
2022/11/01 13:26:55;;;;;;;0.17;0.10;;;16.40;99.90;;;;;;5055867;28;20277;-77
2022/11/01 13:29:36;;;;;;;0.10;0.10;;;16.30;99.90;;;;;;5061615;28;20192;-76
2022/11/01 13:32:12;;;;;;;0.10;0.10;;;16.20;99.90;;;;;;5058886;28;20589;-76
2022/11/01 13:34:52;;;;;;;0.10;0.10;;;16.30;99.90;;;;;;5069660;28;20567;-76
2022/11/01 13:37:33;;;;;;;0.10;0.10;;;16.20;99.90;;;;;;5081008;28;20215;-75
2022/11/01 13:40:20;;;;;;;0.10;0.10;;;16.10;99.90;;;;;;5075461;28;20192;-76
2022/11/01 13:42:56;;;;;;;0.10;0.10;;;16.00;99.90;;;;;;5071610;28;20206;-76
2022/11/01 13:46:12;;;;;;;0.10;0.10;;;16.00;99.90;;;;;;5057740;28;20193;-76